sensor_id;sensor_type;location;lat;lon;timestamp;P1;durP1;ratioP1;P2;durP2;ratioP2
46927;SDS011;32668;51.306;-0.576;2022-07-17T00:00:40;5.35;;;1.48;;
46927;SDS011;32668;51.306;-0.576;2022-07-17T00:03:11;5.03;;;1.38;;
46927;SDS011;32668;51.306;-0.576;2022-07-17T00:05:38;5.05;;;1.17;;
46927;SDS011;32668;51.306;-0.576;2022-07-17T00:08:04;4.22;;;1.27;;
46927;SDS011;32668;51.306;-0.576;2022-07-17T00:10:31;4.07;;;1.40;;
46927;SDS011;32668;51.306;-0.576;2022-07-17T00:12:57;2.42;;;1.20;;
46927;SDS011;32668;51.306;-0.576;2022-07-17T00:15:23;3.22;;;1.20;;
46927;SDS011;32668;51.306;-0.576;2022-07-17T00:17:48;3.38;;;1.60;;
46927;SDS011;32668;51.306;-0.576;2022-07-17T00:20:14;4.63;;;1.35;;
46927;SDS011;32668;51.306;-0.576;2022-07-17T00:22:39;3.97;;;1.55;;
46927;SDS011;32668;51.306;-0.576;2022-07-17T00:25:07;3.85;;;1.52;;
46927;SDS011;32668;51.306;-0.576;2022-07-17T00:27:33;3.85;;;1.10;;
46927;SDS011;32668;51.306;-0.576;2022-07-17T00:29:58;3.08;;;1.20;;
46927;SDS011;32668;51.306;-0.576;2022-07-17T00:32:24;6.60;;;1.85;;
46927;SDS011;32668;51.306;-0.576;2022-07-17T00:34:50;3.45;;;1.58;;
46927;SDS011;32668;51.306;-0.576;2022-07-17T00:37:15;2.63;;;1.45;;
46927;SDS011;32668;51.306;-0.576;2022-07-17T00:39:41;5.07;;;1.33;;
46927;SDS011;32668;51.306;-0.576;2022-07-17T00:42:10;3.22;;;1.38;;
46927;SDS011;32668;51.306;-0.576;2022-07-17T00:44:39;5.40;;;1.30;;
46927;SDS011;32668;51.306;-0.576;2022-07-17T00:47:26;4.30;;;1.25;;
46927;SDS011;32668;51.306;-0.576;2022-07-17T00:49:51;4.65;;;1.30;;
46927;SDS011;32668;51.306;-0.576;2022-07-17T00:52:17;4.40;;;1.42;;
46927;SDS011;32668;51.306;-0.576;2022-07-17T00:54:44;2.08;;;1.10;;
46927;SDS011;32668;51.306;-0.576;2022-07-17T00:57:12;4.93;;;1.17;;
46927;SDS011;32668;51.306;-0.576;2022-07-17T00:59:39;3.75;;;1.50;;
46927;SDS011;32668;51.306;-0.576;2022-07-17T01:02:06;3.70;;;1.40;;
46927;SDS011;32668;51.306;-0.576;2022-07-17T01:04:32;4.05;;;1.70;;
46927;SDS011;32668;51.306;-0.576;2022-07-17T01:06:59;3.72;;;1.50;;
46927;SDS011;32668;51.306;-0.576;2022-07-17T01:09:26;3.75;;;1.67;;
46927;SDS011;32668;51.306;-0.576;2022-07-17T01:11:52;3.22;;;1.10;;
46927;SDS011;32668;51.306;-0.576;2022-07-17T01:14:18;2.83;;;1.10;;
46927;SDS011;32668;51.306;-0.576;2022-07-17T01:16:43;9.02;;;1.70;;
46927;SDS011;32668;51.306;-0.576;2022-07-17T01:19:10;2.75;;;1.20;;
46927;SDS011;32668;51.306;-0.576;2022-07-17T01:21:43;5.40;;;1.33;;
46927;SDS011;32668;51.306;-0.576;2022-07-17T01:24:11;5.22;;;1.23;;
46927;SDS011;32668;51.306;-0.576;2022-07-17T01:26:39;3.30;;;1.15;;
46927;SDS011;32668;51.306;-0.576;2022-07-17T01:29:06;3.03;;;1.00;;
46927;SDS011;32668;51.306;-0.576;2022-07-17T01:31:33;5.13;;;1.40;;
46927;SDS011;32668;51.306;-0.576;2022-07-17T01:33:58;4.25;;;1.70;;
46927;SDS011;32668;51.306;-0.576;2022-07-17T01:36:25;6.63;;;1.30;;
46927;SDS011;32668;51.306;-0.576;2022-07-17T01:38:51;5.15;;;1.80;;
46927;SDS011;32668;51.306;-0.576;2022-07-17T01:41:16;5.10;;;1.65;;
46927;SDS011;32668;51.306;-0.576;2022-07-17T01:43:42;3.00;;;1.30;;
46927;SDS011;32668;51.306;-0.576;2022-07-17T01:46:07;3.83;;;1.63;;
46927;SDS011;32668;51.306;-0.576;2022-07-17T01:48:33;4.78;;;1.58;;
46927;SDS011;32668;51.306;-0.576;2022-07-17T01:50:58;5.20;;;1.65;;
46927;SDS011;32668;51.306;-0.576;2022-07-17T01:53:24;3.17;;;1.65;;
46927;SDS011;32668;51.306;-0.576;2022-07-17T01:55:50;2.85;;;1.40;;
46927;SDS011;32668;51.306;-0.576;2022-07-17T01:58:16;3.05;;;1.40;;
46927;SDS011;32668;51.306;-0.576;2022-07-17T02:00:41;3.70;;;1.40;;
46927;SDS011;32668;51.306;-0.576;2022-07-17T02:03:07;8.05;;;1.88;;
46927;SDS011;32668;51.306;-0.576;2022-07-17T02:05:32;4.55;;;1.80;;
46927;SDS011;32668;51.306;-0.576;2022-07-17T02:07:58;4.50;;;1.45;;
46927;SDS011;32668;51.306;-0.576;2022-07-17T02:10:23;4.85;;;1.65;;
46927;SDS011;32668;51.306;-0.576;2022-07-17T02:12:49;5.22;;;1.90;;
46927;SDS011;32668;51.306;-0.576;2022-07-17T02:15:15;4.55;;;1.65;;
46927;SDS011;32668;51.306;-0.576;2022-07-17T02:17:40;3.92;;;1.80;;
46927;SDS011;32668;51.306;-0.576;2022-07-17T02:20:07;4.57;;;1.70;;
46927;SDS011;32668;51.306;-0.576;2022-07-17T02:22:33;2.78;;;1.50;;
46927;SDS011;32668;51.306;-0.576;2022-07-17T02:24:59;7.78;;;1.90;;
46927;SDS011;32668;51.306;-0.576;2022-07-17T02:27:24;6.28;;;2.13;;
46927;SDS011;32668;51.306;-0.576;2022-07-17T02:29:50;3.58;;;1.52;;
46927;SDS011;32668;51.306;-0.576;2022-07-17T02:32:15;8.70;;;1.40;;
46927;SDS011;32668;51.306;-0.576;2022-07-17T02:34:41;11.38;;;1.80;;
46927;SDS011;32668;51.306;-0.576;2022-07-17T02:37:06;4.47;;;2.50;;
46927;SDS011;32668;51.306;-0.576;2022-07-17T02:39:32;3.55;;;1.67;;
46927;SDS011;32668;51.306;-0.576;2022-07-17T02:41:57;1.88;;;1.42;;
46927;SDS011;32668;51.306;-0.576;2022-07-17T02:44:22;2.80;;;1.42;;
46927;SDS011;32668;51.306;-0.576;2022-07-17T02:46:48;6.13;;;1.35;;
46927;SDS011;32668;51.306;-0.576;2022-07-17T02:49:13;2.30;;;1.30;;
46927;SDS011;32668;51.306;-0.576;2022-07-17T02:51:39;2.53;;;1.50;;
46927;SDS011;32668;51.306;-0.576;2022-07-17T02:54:05;4.03;;;1.67;;
46927;SDS011;32668;51.306;-0.576;2022-07-17T02:56:31;2.03;;;1.33;;
46927;SDS011;32668;51.306;-0.576;2022-07-17T02:58:56;4.32;;;1.58;;
46927;SDS011;32668;51.306;-0.576;2022-07-17T03:01:22;6.80;;;1.60;;
46927;SDS011;32668;51.306;-0.576;2022-07-17T03:03:47;6.32;;;1.95;;
46927;SDS011;32668;51.306;-0.576;2022-07-17T03:06:12;8.00;;;1.92;;
46927;SDS011;32668;51.306;-0.576;2022-07-17T03:08:38;4.40;;;1.63;;
46927;SDS011;32668;51.306;-0.576;2022-07-17T03:11:03;2.67;;;1.48;;
46927;SDS011;32668;51.306;-0.576;2022-07-17T03:13:28;3.10;;;1.48;;
46927;SDS011;32668;51.306;-0.576;2022-07-17T03:15:54;3.67;;;1.70;;
46927;SDS011;32668;51.306;-0.576;2022-07-17T03:18:19;4.63;;;2.92;;
46927;SDS011;32668;51.306;-0.576;2022-07-17T03:20:45;4.57;;;1.70;;
46927;SDS011;32668;51.306;-0.576;2022-07-17T03:23:10;3.13;;;1.65;;
46927;SDS011;32668;51.306;-0.576;2022-07-17T03:25:36;3.33;;;1.92;;
46927;SDS011;32668;51.306;-0.576;2022-07-17T03:28:02;3.83;;;1.95;;
46927;SDS011;32668;51.306;-0.576;2022-07-17T03:30:27;3.30;;;2.10;;
46927;SDS011;32668;51.306;-0.576;2022-07-17T03:32:53;3.17;;;1.65;;
46927;SDS011;32668;51.306;-0.576;2022-07-17T03:35:18;3.53;;;1.92;;
46927;SDS011;32668;51.306;-0.576;2022-07-17T03:37:44;3.67;;;1.83;;
46927;SDS011;32668;51.306;-0.576;2022-07-17T03:40:09;4.43;;;1.77;;
46927;SDS011;32668;51.306;-0.576;2022-07-17T03:42:35;4.20;;;1.80;;
46927;SDS011;32668;51.306;-0.576;2022-07-17T03:45:01;8.93;;;2.10;;
46927;SDS011;32668;51.306;-0.576;2022-07-17T03:47:26;3.30;;;1.70;;
46927;SDS011;32668;51.306;-0.576;2022-07-17T03:49:51;6.90;;;2.30;;
46927;SDS011;32668;51.306;-0.576;2022-07-17T03:52:17;5.43;;;3.15;;
46927;SDS011;32668;51.306;-0.576;2022-07-17T03:54:42;7.68;;;3.55;;
46927;SDS011;32668;51.306;-0.576;2022-07-17T03:57:08;10.20;;;3.25;;
46927;SDS011;32668;51.306;-0.576;2022-07-17T03:59:33;7.72;;;3.30;;
46927;SDS011;32668;51.306;-0.576;2022-07-17T04:01:58;9.43;;;4.10;;
46927;SDS011;32668;51.306;-0.576;2022-07-17T04:04:24;9.45;;;3.95;;
46927;SDS011;32668;51.306;-0.576;2022-07-17T04:06:49;9.60;;;4.63;;
46927;SDS011;32668;51.306;-0.576;2022-07-17T04:09:15;10.95;;;4.45;;
46927;SDS011;32668;51.306;-0.576;2022-07-17T04:11:40;9.73;;;4.25;;
46927;SDS011;32668;51.306;-0.576;2022-07-17T04:14:06;11.50;;;4.68;;
46927;SDS011;32668;51.306;-0.576;2022-07-17T04:16:31;12.75;;;4.45;;
46927;SDS011;32668;51.306;-0.576;2022-07-17T04:18:56;11.88;;;5.38;;
46927;SDS011;32668;51.306;-0.576;2022-07-17T04:21:22;6.20;;;4.20;;
46927;SDS011;32668;51.306;-0.576;2022-07-17T04:23:47;8.90;;;4.10;;
46927;SDS011;32668;51.306;-0.576;2022-07-17T04:26:13;11.15;;;4.25;;
46927;SDS011;32668;51.306;-0.576;2022-07-17T04:28:39;8.75;;;4.75;;
46927;SDS011;32668;51.306;-0.576;2022-07-17T04:31:04;9.02;;;4.40;;
46927;SDS011;32668;51.306;-0.576;2022-07-17T04:33:30;8.63;;;3.75;;
46927;SDS011;32668;51.306;-0.576;2022-07-17T04:35:55;9.23;;;3.88;;
46927;SDS011;32668;51.306;-0.576;2022-07-17T04:38:21;8.73;;;4.00;;
46927;SDS011;32668;51.306;-0.576;2022-07-17T04:40:46;13.13;;;4.60;;
46927;SDS011;32668;51.306;-0.576;2022-07-17T04:43:11;9.13;;;4.35;;
46927;SDS011;32668;51.306;-0.576;2022-07-17T04:45:37;10.48;;;4.22;;
46927;SDS011;32668;51.306;-0.576;2022-07-17T04:48:03;9.82;;;4.00;;
46927;SDS011;32668;51.306;-0.576;2022-07-17T04:50:29;8.90;;;3.63;;
46927;SDS011;32668;51.306;-0.576;2022-07-17T04:52:54;7.05;;;3.75;;
46927;SDS011;32668;51.306;-0.576;2022-07-17T04:55:20;10.10;;;4.03;;
46927;SDS011;32668;51.306;-0.576;2022-07-17T04:57:45;8.73;;;4.03;;
46927;SDS011;32668;51.306;-0.576;2022-07-17T05:00:11;6.13;;;3.40;;
46927;SDS011;32668;51.306;-0.576;2022-07-17T05:02:37;6.00;;;3.25;;
46927;SDS011;32668;51.306;-0.576;2022-07-17T05:05:03;6.72;;;4.13;;
46927;SDS011;32668;51.306;-0.576;2022-07-17T05:07:30;9.02;;;3.08;;
46927;SDS011;32668;51.306;-0.576;2022-07-17T05:09:55;8.30;;;3.63;;
46927;SDS011;32668;51.306;-0.576;2022-07-17T05:12:21;7.32;;;3.17;;
46927;SDS011;32668;51.306;-0.576;2022-07-17T05:14:46;9.18;;;3.83;;
46927;SDS011;32668;51.306;-0.576;2022-07-17T05:17:12;5.38;;;2.92;;
46927;SDS011;32668;51.306;-0.576;2022-07-17T05:19:38;5.20;;;2.92;;
46927;SDS011;32668;51.306;-0.576;2022-07-17T05:22:03;11.30;;;3.67;;
46927;SDS011;32668;51.306;-0.576;2022-07-17T05:24:30;6.93;;;3.13;;
46927;SDS011;32668;51.306;-0.576;2022-07-17T05:26:55;7.93;;;3.42;;
46927;SDS011;32668;51.306;-0.576;2022-07-17T05:29:21;7.85;;;3.42;;
46927;SDS011;32668;51.306;-0.576;2022-07-17T05:31:46;7.13;;;3.53;;
46927;SDS011;32668;51.306;-0.576;2022-07-17T05:34:12;9.07;;;3.53;;
46927;SDS011;32668;51.306;-0.576;2022-07-17T05:36:37;8.20;;;3.10;;
46927;SDS011;32668;51.306;-0.576;2022-07-17T05:39:03;5.80;;;2.85;;
46927;SDS011;32668;51.306;-0.576;2022-07-17T05:41:28;5.80;;;3.13;;
46927;SDS011;32668;51.306;-0.576;2022-07-17T05:43:54;8.98;;;2.85;;
46927;SDS011;32668;51.306;-0.576;2022-07-17T05:46:19;6.15;;;2.58;;
46927;SDS011;32668;51.306;-0.576;2022-07-17T05:48:45;4.10;;;2.03;;
46927;SDS011;32668;51.306;-0.576;2022-07-17T05:51:10;3.72;;;2.40;;
46927;SDS011;32668;51.306;-0.576;2022-07-17T05:53:35;6.00;;;2.90;;
46927;SDS011;32668;51.306;-0.576;2022-07-17T05:56:01;3.95;;;2.67;;
46927;SDS011;32668;51.306;-0.576;2022-07-17T05:58:26;5.88;;;2.58;;
46927;SDS011;32668;51.306;-0.576;2022-07-17T06:00:52;4.68;;;2.35;;
46927;SDS011;32668;51.306;-0.576;2022-07-17T06:03:18;3.80;;;1.85;;
46927;SDS011;32668;51.306;-0.576;2022-07-17T06:05:44;4.63;;;1.70;;
46927;SDS011;32668;51.306;-0.576;2022-07-17T06:08:09;6.45;;;2.25;;
46927;SDS011;32668;51.306;-0.576;2022-07-17T06:10:35;6.13;;;1.67;;
46927;SDS011;32668;51.306;-0.576;2022-07-17T06:13:02;6.00;;;2.00;;
46927;SDS011;32668;51.306;-0.576;2022-07-17T06:15:28;6.00;;;1.95;;
46927;SDS011;32668;51.306;-0.576;2022-07-17T06:17:53;3.35;;;1.55;;
46927;SDS011;32668;51.306;-0.576;2022-07-17T06:20:19;4.50;;;1.65;;
46927;SDS011;32668;51.306;-0.576;2022-07-17T06:22:44;5.03;;;2.58;;
46927;SDS011;32668;51.306;-0.576;2022-07-17T06:25:10;2.78;;;1.60;;
46927;SDS011;32668;51.306;-0.576;2022-07-17T06:27:40;5.15;;;1.75;;
46927;SDS011;32668;51.306;-0.576;2022-07-17T06:30:10;3.50;;;1.52;;
46927;SDS011;32668;51.306;-0.576;2022-07-17T06:32:37;4.32;;;1.73;;
46927;SDS011;32668;51.306;-0.576;2022-07-17T06:35:03;5.90;;;1.67;;
46927;SDS011;32668;51.306;-0.576;2022-07-17T06:37:29;4.65;;;1.67;;
46927;SDS011;32668;51.306;-0.576;2022-07-17T06:39:54;4.80;;;1.65;;
46927;SDS011;32668;51.306;-0.576;2022-07-17T06:42:20;4.93;;;1.95;;
46927;SDS011;32668;51.306;-0.576;2022-07-17T06:44:46;4.97;;;2.40;;
46927;SDS011;32668;51.306;-0.576;2022-07-17T06:47:11;3.90;;;1.77;;
46927;SDS011;32668;51.306;-0.576;2022-07-17T06:49:36;3.38;;;1.77;;
46927;SDS011;32668;51.306;-0.576;2022-07-17T06:52:02;4.72;;;1.98;;
46927;SDS011;32668;51.306;-0.576;2022-07-17T06:54:27;4.47;;;1.83;;
46927;SDS011;32668;51.306;-0.576;2022-07-17T06:56:53;4.63;;;2.22;;
46927;SDS011;32668;51.306;-0.576;2022-07-17T06:59:19;5.22;;;1.80;;
46927;SDS011;32668;51.306;-0.576;2022-07-17T07:01:44;3.17;;;2.00;;
46927;SDS011;32668;51.306;-0.576;2022-07-17T07:04:10;5.85;;;1.88;;
46927;SDS011;32668;51.306;-0.576;2022-07-17T07:06:36;5.10;;;1.65;;
46927;SDS011;32668;51.306;-0.576;2022-07-17T07:09:01;7.53;;;2.47;;
46927;SDS011;32668;51.306;-0.576;2022-07-17T07:11:27;3.60;;;1.40;;
46927;SDS011;32668;51.306;-0.576;2022-07-17T07:13:52;6.32;;;1.95;;
46927;SDS011;32668;51.306;-0.576;2022-07-17T07:16:18;5.28;;;1.48;;
46927;SDS011;32668;51.306;-0.576;2022-07-17T07:18:43;9.15;;;1.92;;
46927;SDS011;32668;51.306;-0.576;2022-07-17T07:21:09;4.25;;;1.83;;
46927;SDS011;32668;51.306;-0.576;2022-07-17T07:23:35;6.07;;;1.60;;
46927;SDS011;32668;51.306;-0.576;2022-07-17T07:26:00;4.32;;;2.10;;
46927;SDS011;32668;51.306;-0.576;2022-07-17T07:28:26;10.38;;;1.73;;
46927;SDS011;32668;51.306;-0.576;2022-07-17T07:30:51;4.28;;;1.70;;
46927;SDS011;32668;51.306;-0.576;2022-07-17T07:33:17;3.60;;;1.75;;
46927;SDS011;32668;51.306;-0.576;2022-07-17T07:35:42;3.38;;;1.20;;
46927;SDS011;32668;51.306;-0.576;2022-07-17T07:38:08;4.90;;;1.40;;
46927;SDS011;32668;51.306;-0.576;2022-07-17T07:40:35;7.43;;;1.33;;
46927;SDS011;32668;51.306;-0.576;2022-07-17T07:43:01;5.65;;;1.52;;
46927;SDS011;32668;51.306;-0.576;2022-07-17T07:45:27;6.30;;;1.73;;
46927;SDS011;32668;51.306;-0.576;2022-07-17T07:47:53;5.07;;;1.20;;
46927;SDS011;32668;51.306;-0.576;2022-07-17T07:50:21;5.40;;;2.10;;
46927;SDS011;32668;51.306;-0.576;2022-07-17T07:52:49;3.78;;;1.27;;
46927;SDS011;32668;51.306;-0.576;2022-07-17T07:55:14;5.53;;;1.27;;
46927;SDS011;32668;51.306;-0.576;2022-07-17T07:57:40;2.88;;;1.20;;
46927;SDS011;32668;51.306;-0.576;2022-07-17T08:00:06;4.93;;;1.20;;
46927;SDS011;32668;51.306;-0.576;2022-07-17T08:02:33;3.55;;;1.17;;
46927;SDS011;32668;51.306;-0.576;2022-07-17T08:04:59;4.38;;;1.40;;
46927;SDS011;32668;51.306;-0.576;2022-07-17T08:07:26;3.85;;;1.25;;
46927;SDS011;32668;51.306;-0.576;2022-07-17T08:09:52;6.95;;;1.60;;
46927;SDS011;32668;51.306;-0.576;2022-07-17T08:12:17;5.03;;;1.20;;
46927;SDS011;32668;51.306;-0.576;2022-07-17T08:14:43;5.88;;;1.50;;
46927;SDS011;32668;51.306;-0.576;2022-07-17T08:17:08;2.97;;;1.40;;
46927;SDS011;32668;51.306;-0.576;2022-07-17T08:19:34;6.38;;;1.33;;
46927;SDS011;32668;51.306;-0.576;2022-07-17T08:21:59;3.50;;;1.75;;
46927;SDS011;32668;51.306;-0.576;2022-07-17T08:24:25;3.63;;;1.38;;
46927;SDS011;32668;51.306;-0.576;2022-07-17T08:26:50;3.03;;;1.20;;
46927;SDS011;32668;51.306;-0.576;2022-07-17T08:29:16;3.60;;;1.20;;
46927;SDS011;32668;51.306;-0.576;2022-07-17T08:31:41;3.20;;;1.50;;
46927;SDS011;32668;51.306;-0.576;2022-07-17T08:34:07;4.10;;;1.30;;
46927;SDS011;32668;51.306;-0.576;2022-07-17T08:36:32;2.97;;;1.20;;
46927;SDS011;32668;51.306;-0.576;2022-07-17T08:38:58;3.42;;;1.27;;
46927;SDS011;32668;51.306;-0.576;2022-07-17T08:41:25;6.75;;;2.03;;
46927;SDS011;32668;51.306;-0.576;2022-07-17T08:43:52;3.47;;;1.45;;
46927;SDS011;32668;51.306;-0.576;2022-07-17T08:46:19;5.32;;;1.80;;
46927;SDS011;32668;51.306;-0.576;2022-07-17T08:48:54;8.60;;;1.60;;
46927;SDS011;32668;51.306;-0.576;2022-07-17T08:51:22;9.65;;;1.30;;
46927;SDS011;32668;51.306;-0.576;2022-07-17T08:53:49;6.68;;;1.27;;
46927;SDS011;32668;51.306;-0.576;2022-07-17T08:56:15;4.22;;;1.40;;
46927;SDS011;32668;51.306;-0.576;2022-07-17T08:58:40;4.32;;;1.10;;
46927;SDS011;32668;51.306;-0.576;2022-07-17T09:01:06;2.25;;;1.27;;
46927;SDS011;32668;51.306;-0.576;2022-07-17T09:03:31;3.40;;;1.50;;
46927;SDS011;32668;51.306;-0.576;2022-07-17T09:05:57;2.45;;;1.10;;
46927;SDS011;32668;51.306;-0.576;2022-07-17T09:08:23;4.55;;;1.02;;
46927;SDS011;32668;51.306;-0.576;2022-07-17T09:10:50;6.45;;;1.48;;
46927;SDS011;32668;51.306;-0.576;2022-07-17T09:13:20;4.10;;;1.45;;
46927;SDS011;32668;51.306;-0.576;2022-07-17T09:15:48;4.32;;;1.50;;
46927;SDS011;32668;51.306;-0.576;2022-07-17T09:18:15;2.38;;;1.35;;
46927;SDS011;32668;51.306;-0.576;2022-07-17T09:21:00;4.68;;;2.00;;
46927;SDS011;32668;51.306;-0.576;2022-07-17T09:23:26;2.80;;;1.17;;
46927;SDS011;32668;51.306;-0.576;2022-07-17T09:25:53;5.30;;;1.60;;
46927;SDS011;32668;51.306;-0.576;2022-07-17T09:28:20;4.35;;;1.60;;
46927;SDS011;32668;51.306;-0.576;2022-07-17T09:30:48;2.42;;;1.10;;
46927;SDS011;32668;51.306;-0.576;2022-07-17T09:33:17;1.85;;;1.10;;
46927;SDS011;32668;51.306;-0.576;2022-07-17T09:41:03;4.47;;;1.20;;
46927;SDS011;32668;51.306;-0.576;2022-07-17T09:44:01;4.47;;;1.35;;
46927;SDS011;32668;51.306;-0.576;2022-07-17T09:46:27;4.20;;;1.70;;
46927;SDS011;32668;51.306;-0.576;2022-07-17T09:49:00;3.70;;;1.45;;
46927;SDS011;32668;51.306;-0.576;2022-07-17T09:51:31;6.72;;;1.30;;
46927;SDS011;32668;51.306;-0.576;2022-07-17T09:53:59;2.47;;;1.48;;
46927;SDS011;32668;51.306;-0.576;2022-07-17T09:56:28;4.07;;;1.52;;
46927;SDS011;32668;51.306;-0.576;2022-07-17T09:59:00;2.65;;;1.20;;
46927;SDS011;32668;51.306;-0.576;2022-07-17T10:01:28;4.35;;;1.23;;
46927;SDS011;32668;51.306;-0.576;2022-07-17T10:03:53;4.55;;;1.65;;
46927;SDS011;32668;51.306;-0.576;2022-07-17T10:06:19;1.88;;;1.38;;
46927;SDS011;32668;51.306;-0.576;2022-07-17T10:08:49;3.83;;;1.70;;
46927;SDS011;32668;51.306;-0.576;2022-07-17T10:11:16;4.15;;;1.60;;
46927;SDS011;32668;51.306;-0.576;2022-07-17T10:13:46;6.45;;;1.48;;
46927;SDS011;32668;51.306;-0.576;2022-07-17T10:16:12;5.07;;;1.45;;
46927;SDS011;32668;51.306;-0.576;2022-07-17T10:18:42;4.00;;;1.10;;
46927;SDS011;32668;51.306;-0.576;2022-07-17T10:23:34;2.90;;;1.48;;
46927;SDS011;32668;51.306;-0.576;2022-07-17T10:26:02;10.50;;;1.60;;
46927;SDS011;32668;51.306;-0.576;2022-07-17T10:28:37;4.15;;;1.42;;
46927;SDS011;32668;51.306;-0.576;2022-07-17T10:31:05;3.88;;;1.45;;
46927;SDS011;32668;51.306;-0.576;2022-07-17T10:33:31;2.85;;;1.60;;
46927;SDS011;32668;51.306;-0.576;2022-07-17T10:35:56;1.90;;;1.30;;
46927;SDS011;32668;51.306;-0.576;2022-07-17T10:38:24;2.97;;;1.60;;
46927;SDS011;32668;51.306;-0.576;2022-07-17T10:41:01;2.55;;;1.50;;
46927;SDS011;32668;51.306;-0.576;2022-07-17T10:43:39;6.15;;;1.45;;
46927;SDS011;32668;51.306;-0.576;2022-07-17T10:46:07;6.57;;;1.40;;
46927;SDS011;32668;51.306;-0.576;2022-07-17T10:48:33;1.92;;;1.40;;
46927;SDS011;32668;51.306;-0.576;2022-07-17T10:50:59;2.58;;;1.40;;
46927;SDS011;32668;51.306;-0.576;2022-07-17T10:53:25;4.80;;;1.23;;
46927;SDS011;32668;51.306;-0.576;2022-07-17T11:03:39;5.60;;;1.85;;
46927;SDS011;32668;51.306;-0.576;2022-07-17T11:06:17;2.22;;;1.23;;
46927;SDS011;32668;51.306;-0.576;2022-07-17T11:08:56;6.43;;;1.60;;
46927;SDS011;32668;51.306;-0.576;2022-07-17T11:11:23;3.25;;;1.48;;
46927;SDS011;32668;51.306;-0.576;2022-07-17T11:16:52;5.45;;;1.90;;
46927;SDS011;32668;51.306;-0.576;2022-07-17T11:19:31;3.55;;;1.60;;
46927;SDS011;32668;51.306;-0.576;2022-07-17T11:21:57;4.63;;;1.52;;
46927;SDS011;32668;51.306;-0.576;2022-07-17T11:24:34;2.97;;;1.38;;
46927;SDS011;32668;51.306;-0.576;2022-07-17T11:27:07;8.27;;;1.70;;
46927;SDS011;32668;51.306;-0.576;2022-07-17T11:29:40;2.45;;;1.48;;
46927;SDS011;32668;51.306;-0.576;2022-07-17T11:32:06;5.95;;;1.48;;
46927;SDS011;32668;51.306;-0.576;2022-07-17T11:34:32;8.30;;;1.92;;
46927;SDS011;32668;51.306;-0.576;2022-07-17T11:36:59;4.75;;;1.67;;
46927;SDS011;32668;51.306;-0.576;2022-07-17T11:39:25;2.55;;;1.45;;
46927;SDS011;32668;51.306;-0.576;2022-07-17T11:42:09;6.53;;;1.73;;
46927;SDS011;32668;51.306;-0.576;2022-07-17T11:44:42;3.42;;;1.67;;
46927;SDS011;32668;51.306;-0.576;2022-07-17T11:47:11;3.88;;;1.60;;
46927;SDS011;32668;51.306;-0.576;2022-07-17T11:49:38;3.10;;;1.70;;
46927;SDS011;32668;51.306;-0.576;2022-07-17T11:52:12;4.93;;;1.77;;
46927;SDS011;32668;51.306;-0.576;2022-07-17T11:54:45;5.40;;;1.55;;
46927;SDS011;32668;51.306;-0.576;2022-07-17T11:57:16;4.05;;;1.83;;
46927;SDS011;32668;51.306;-0.576;2022-07-17T11:59:42;2.20;;;1.58;;
46927;SDS011;32668;51.306;-0.576;2022-07-17T12:04:34;4.75;;;1.52;;
46927;SDS011;32668;51.306;-0.576;2022-07-17T12:07:01;3.78;;;2.15;;
46927;SDS011;32668;51.306;-0.576;2022-07-17T12:09:28;5.38;;;1.50;;
46927;SDS011;32668;51.306;-0.576;2022-07-17T12:11:58;3.40;;;1.77;;
46927;SDS011;32668;51.306;-0.576;2022-07-17T12:14:24;2.90;;;1.77;;
46927;SDS011;32668;51.306;-0.576;2022-07-17T12:16:50;3.72;;;1.70;;
46927;SDS011;32668;51.306;-0.576;2022-07-17T12:19:17;5.47;;;1.88;;
46927;SDS011;32668;51.306;-0.576;2022-07-17T12:21:51;6.03;;;2.25;;
46927;SDS011;32668;51.306;-0.576;2022-07-17T12:24:23;4.07;;;1.83;;
46927;SDS011;32668;51.306;-0.576;2022-07-17T12:26:57;4.82;;;1.63;;
46927;SDS011;32668;51.306;-0.576;2022-07-17T12:29:27;2.78;;;1.70;;
46927;SDS011;32668;51.306;-0.576;2022-07-17T12:32:00;4.18;;;1.90;;
46927;SDS011;32668;51.306;-0.576;2022-07-17T12:34:25;5.90;;;1.90;;
46927;SDS011;32668;51.306;-0.576;2022-07-17T12:36:51;4.55;;;1.90;;
46927;SDS011;32668;51.306;-0.576;2022-07-17T12:39:16;6.75;;;2.40;;
46927;SDS011;32668;51.306;-0.576;2022-07-17T12:41:42;4.13;;;2.00;;
46927;SDS011;32668;51.306;-0.576;2022-07-17T12:44:07;2.33;;;1.73;;
46927;SDS011;32668;51.306;-0.576;2022-07-17T12:46:33;6.72;;;2.13;;
46927;SDS011;32668;51.306;-0.576;2022-07-17T12:48:59;3.05;;;1.90;;
46927;SDS011;32668;51.306;-0.576;2022-07-17T12:51:24;4.28;;;2.38;;
46927;SDS011;32668;51.306;-0.576;2022-07-17T12:53:50;5.97;;;2.78;;
46927;SDS011;32668;51.306;-0.576;2022-07-17T12:56:15;5.70;;;2.60;;
46927;SDS011;32668;51.306;-0.576;2022-07-17T12:58:40;1.83;;;1.60;;
46927;SDS011;32668;51.306;-0.576;2022-07-17T13:01:06;8.25;;;2.03;;
46927;SDS011;32668;51.306;-0.576;2022-07-17T13:03:32;3.95;;;1.60;;
46927;SDS011;32668;51.306;-0.576;2022-07-17T13:05:58;5.65;;;2.28;;
46927;SDS011;32668;51.306;-0.576;2022-07-17T13:08:25;3.05;;;1.55;;
46927;SDS011;32668;51.306;-0.576;2022-07-17T13:10:51;2.60;;;1.83;;
46927;SDS011;32668;51.306;-0.576;2022-07-17T13:13:17;3.55;;;2.13;;
46927;SDS011;32668;51.306;-0.576;2022-07-17T13:15:42;2.67;;;1.80;;
46927;SDS011;32668;51.306;-0.576;2022-07-17T13:18:08;4.13;;;1.95;;
46927;SDS011;32668;51.306;-0.576;2022-07-17T13:20:34;3.63;;;1.73;;
46927;SDS011;32668;51.306;-0.576;2022-07-17T13:23:00;4.00;;;1.80;;
46927;SDS011;32668;51.306;-0.576;2022-07-17T13:25:25;3.95;;;1.70;;
46927;SDS011;32668;51.306;-0.576;2022-07-17T13:27:51;4.45;;;1.48;;
46927;SDS011;32668;51.306;-0.576;2022-07-17T13:30:16;2.80;;;1.85;;
46927;SDS011;32668;51.306;-0.576;2022-07-17T13:32:42;6.20;;;1.70;;
46927;SDS011;32668;51.306;-0.576;2022-07-17T13:35:07;4.75;;;1.70;;
46927;SDS011;32668;51.306;-0.576;2022-07-17T13:37:33;3.90;;;1.60;;
46927;SDS011;32668;51.306;-0.576;2022-07-17T13:39:58;3.58;;;1.83;;
46927;SDS011;32668;51.306;-0.576;2022-07-17T13:42:24;3.78;;;1.77;;
46927;SDS011;32668;51.306;-0.576;2022-07-17T13:44:49;13.60;;;1.90;;
46927;SDS011;32668;51.306;-0.576;2022-07-17T13:47:15;2.78;;;1.23;;
46927;SDS011;32668;51.306;-0.576;2022-07-17T13:49:40;4.82;;;1.63;;
46927;SDS011;32668;51.306;-0.576;2022-07-17T13:52:06;2.38;;;1.58;;
46927;SDS011;32668;51.306;-0.576;2022-07-17T13:54:31;3.97;;;1.60;;
46927;SDS011;32668;51.306;-0.576;2022-07-17T13:56:57;3.22;;;1.58;;
46927;SDS011;32668;51.306;-0.576;2022-07-17T13:59:22;2.40;;;1.33;;
46927;SDS011;32668;51.306;-0.576;2022-07-17T14:01:48;4.78;;;1.50;;
46927;SDS011;32668;51.306;-0.576;2022-07-17T14:04:13;2.38;;;1.80;;
46927;SDS011;32668;51.306;-0.576;2022-07-17T14:06:39;2.15;;;1.73;;
46927;SDS011;32668;51.306;-0.576;2022-07-17T14:09:04;2.50;;;1.30;;
46927;SDS011;32668;51.306;-0.576;2022-07-17T14:11:30;5.35;;;1.80;;
46927;SDS011;32668;51.306;-0.576;2022-07-17T14:13:55;2.78;;;1.75;;
46927;SDS011;32668;51.306;-0.576;2022-07-17T14:16:21;4.35;;;1.60;;
46927;SDS011;32668;51.306;-0.576;2022-07-17T14:18:46;4.80;;;1.45;;
46927;SDS011;32668;51.306;-0.576;2022-07-17T14:21:25;5.55;;;2.22;;
46927;SDS011;32668;51.306;-0.576;2022-07-17T14:23:51;6.13;;;1.70;;
46927;SDS011;32668;51.306;-0.576;2022-07-17T14:26:16;3.20;;;1.88;;
46927;SDS011;32668;51.306;-0.576;2022-07-17T14:28:42;4.07;;;1.63;;
46927;SDS011;32668;51.306;-0.576;2022-07-17T14:31:07;2.15;;;1.50;;
46927;SDS011;32668;51.306;-0.576;2022-07-17T14:33:32;4.95;;;1.75;;
46927;SDS011;32668;51.306;-0.576;2022-07-17T14:35:58;4.10;;;2.08;;
46927;SDS011;32668;51.306;-0.576;2022-07-17T14:38:23;3.15;;;1.90;;
46927;SDS011;32668;51.306;-0.576;2022-07-17T14:40:49;3.90;;;1.90;;
46927;SDS011;32668;51.306;-0.576;2022-07-17T14:43:14;2.85;;;1.90;;
46927;SDS011;32668;51.306;-0.576;2022-07-17T14:45:40;3.38;;;1.90;;
46927;SDS011;32668;51.306;-0.576;2022-07-17T14:48:05;2.95;;;1.95;;
46927;SDS011;32668;51.306;-0.576;2022-07-17T14:50:31;4.70;;;1.88;;